sensor_id;sensor_type;location;lat;lon;timestamp;P1;durP1;ratioP1;P2;durP2;ratioP2
40288;SDS011;28991;52.028;5.526;2024-01-11T00:01:31;5.50;;;3.05;;
40288;SDS011;28991;52.028;5.526;2024-01-11T00:03:58;4.20;;;2.47;;
40288;SDS011;28991;52.028;5.526;2024-01-11T00:06:23;4.82;;;3.42;;
40288;SDS011;28991;52.028;5.526;2024-01-11T00:08:49;3.65;;;2.60;;
40288;SDS011;28991;52.028;5.526;2024-01-11T00:11:14;3.78;;;2.53;;
40288;SDS011;28991;52.028;5.526;2024-01-11T00:13:40;4.45;;;3.08;;
40288;SDS011;28991;52.028;5.526;2024-01-11T00:16:05;3.90;;;2.90;;
40288;SDS011;28991;52.028;5.526;2024-01-11T00:18:31;4.53;;;3.15;;
40288;SDS011;28991;52.028;5.526;2024-01-11T00:20:57;3.47;;;2.72;;
40288;SDS011;28991;52.028;5.526;2024-01-11T00:23:22;3.85;;;3.28;;
40288;SDS011;28991;52.028;5.526;2024-01-11T00:25:48;3.72;;;2.90;;
40288;SDS011;28991;52.028;5.526;2024-01-11T00:28:13;3.15;;;2.28;;
40288;SDS011;28991;52.028;5.526;2024-01-11T00:30:39;4.13;;;2.88;;
40288;SDS011;28991;52.028;5.526;2024-01-11T00:33:05;4.32;;;2.95;;
40288;SDS011;28991;52.028;5.526;2024-01-11T00:35:31;3.17;;;2.70;;
40288;SDS011;28991;52.028;5.526;2024-01-11T00:37:57;3.97;;;2.92;;
40288;SDS011;28991;52.028;5.526;2024-01-11T00:40:23;4.47;;;2.88;;
40288;SDS011;28991;52.028;5.526;2024-01-11T00:42:48;3.70;;;2.60;;
40288;SDS011;28991;52.028;5.526;2024-01-11T00:45:14;4.22;;;2.80;;
40288;SDS011;28991;52.028;5.526;2024-01-11T00:47:39;4.15;;;2.92;;
40288;SDS011;28991;52.028;5.526;2024-01-11T00:50:05;4.00;;;2.90;;
40288;SDS011;28991;52.028;5.526;2024-01-11T00:52:31;4.18;;;2.60;;
40288;SDS011;28991;52.028;5.526;2024-01-11T00:54:57;4.55;;;3.13;;
40288;SDS011;28991;52.028;5.526;2024-01-11T00:57:23;4.53;;;3.05;;
40288;SDS011;28991;52.028;5.526;2024-01-11T00:59:48;4.10;;;3.10;;
40288;SDS011;28991;52.028;5.526;2024-01-11T01:02:14;4.30;;;3.20;;
40288;SDS011;28991;52.028;5.526;2024-01-11T01:04:39;3.80;;;2.97;;
40288;SDS011;28991;52.028;5.526;2024-01-11T01:07:05;3.58;;;2.60;;
40288;SDS011;28991;52.028;5.526;2024-01-11T01:09:31;3.30;;;2.67;;
40288;SDS011;28991;52.028;5.526;2024-01-11T01:11:56;6.90;;;3.40;;
40288;SDS011;28991;52.028;5.526;2024-01-11T01:14:22;3.55;;;2.90;;
40288;SDS011;28991;52.028;5.526;2024-01-11T01:16:47;4.45;;;2.95;;
40288;SDS011;28991;52.028;5.526;2024-01-11T01:19:13;3.67;;;2.67;;
40288;SDS011;28991;52.028;5.526;2024-01-11T01:21:38;3.75;;;3.05;;
40288;SDS011;28991;52.028;5.526;2024-01-11T01:24:04;3.30;;;3.00;;
40288;SDS011;28991;52.028;5.526;2024-01-11T01:26:30;3.58;;;2.85;;
40288;SDS011;28991;52.028;5.526;2024-01-11T01:28:55;4.38;;;3.05;;
40288;SDS011;28991;52.028;5.526;2024-01-11T01:31:21;4.22;;;3.00;;
40288;SDS011;28991;52.028;5.526;2024-01-11T01:33:47;4.30;;;3.13;;
40288;SDS011;28991;52.028;5.526;2024-01-11T01:36:12;4.00;;;2.83;;
40288;SDS011;28991;52.028;5.526;2024-01-11T01:38:38;4.65;;;3.33;;
40288;SDS011;28991;52.028;5.526;2024-01-11T01:41:03;4.00;;;3.20;;
40288;SDS011;28991;52.028;5.526;2024-01-11T01:43:29;5.35;;;3.15;;
40288;SDS011;28991;52.028;5.526;2024-01-11T01:45:54;3.78;;;2.75;;
40288;SDS011;28991;52.028;5.526;2024-01-11T01:48:21;4.20;;;2.90;;
40288;SDS011;28991;52.028;5.526;2024-01-11T01:50:47;3.70;;;3.00;;
40288;SDS011;28991;52.028;5.526;2024-01-11T01:53:19;4.28;;;2.78;;
40288;SDS011;28991;52.028;5.526;2024-01-11T01:55:46;4.20;;;3.03;;
40288;SDS011;28991;52.028;5.526;2024-01-11T01:58:13;4.43;;;3.42;;
40288;SDS011;28991;52.028;5.526;2024-01-11T02:00:39;3.45;;;2.92;;
40288;SDS011;28991;52.028;5.526;2024-01-11T02:03:06;3.38;;;2.92;;
40288;SDS011;28991;52.028;5.526;2024-01-11T02:05:33;4.55;;;2.95;;
40288;SDS011;28991;52.028;5.526;2024-01-11T02:07:59;3.67;;;3.05;;
40288;SDS011;28991;52.028;5.526;2024-01-11T02:10:28;4.10;;;3.13;;
40288;SDS011;28991;52.028;5.526;2024-01-11T02:12:57;3.80;;;3.00;;
40288;SDS011;28991;52.028;5.526;2024-01-11T02:15:23;5.22;;;3.53;;
40288;SDS011;28991;52.028;5.526;2024-01-11T02:17:49;5.13;;;3.17;;
40288;SDS011;28991;52.028;5.526;2024-01-11T02:20:15;3.75;;;2.63;;
40288;SDS011;28991;52.028;5.526;2024-01-11T02:22:40;5.18;;;3.35;;
40288;SDS011;28991;52.028;5.526;2024-01-11T02:25:11;3.77;;;2.67;;
40288;SDS011;28991;52.028;5.526;2024-01-11T02:27:46;4.00;;;2.80;;
40288;SDS011;28991;52.028;5.526;2024-01-11T02:30:13;4.53;;;2.70;;
40288;SDS011;28991;52.028;5.526;2024-01-11T02:32:39;3.95;;;3.28;;
40288;SDS011;28991;52.028;5.526;2024-01-11T02:35:05;3.90;;;2.78;;
40288;SDS011;28991;52.028;5.526;2024-01-11T02:37:30;5.15;;;2.90;;
40288;SDS011;28991;52.028;5.526;2024-01-11T02:39:56;3.67;;;2.97;;
40288;SDS011;28991;52.028;5.526;2024-01-11T02:42:22;3.78;;;2.95;;
40288;SDS011;28991;52.028;5.526;2024-01-11T02:44:48;3.78;;;3.00;;
40288;SDS011;28991;52.028;5.526;2024-01-11T02:47:13;4.40;;;3.30;;
40288;SDS011;28991;52.028;5.526;2024-01-11T02:49:39;3.53;;;2.88;;
40288;SDS011;28991;52.028;5.526;2024-01-11T02:52:05;3.33;;;2.60;;
40288;SDS011;28991;52.028;5.526;2024-01-11T02:54:30;4.10;;;2.78;;
40288;SDS011;28991;52.028;5.526;2024-01-11T02:56:56;3.70;;;2.67;;
40288;SDS011;28991;52.028;5.526;2024-01-11T02:59:22;4.18;;;2.70;;
40288;SDS011;28991;52.028;5.526;2024-01-11T03:01:48;3.95;;;2.75;;
40288;SDS011;28991;52.028;5.526;2024-01-11T03:04:14;3.58;;;2.78;;
40288;SDS011;28991;52.028;5.526;2024-01-11T03:06:40;4.35;;;3.05;;
40288;SDS011;28991;52.028;5.526;2024-01-11T03:09:06;3.70;;;2.53;;
40288;SDS011;28991;52.028;5.526;2024-01-11T03:11:31;4.20;;;2.92;;
40288;SDS011;28991;52.028;5.526;2024-01-11T03:13:57;3.75;;;2.78;;
40288;SDS011;28991;52.028;5.526;2024-01-11T03:16:23;3.53;;;2.80;;
40288;SDS011;28991;52.028;5.526;2024-01-11T03:18:48;4.90;;;3.42;;
40288;SDS011;28991;52.028;5.526;2024-01-11T03:21:14;4.47;;;3.15;;
40288;SDS011;28991;52.028;5.526;2024-01-11T03:23:39;4.57;;;3.15;;
40288;SDS011;28991;52.028;5.526;2024-01-11T03:26:12;3.35;;;2.95;;
40288;SDS011;28991;52.028;5.526;2024-01-11T03:28:41;4.50;;;3.00;;
40288;SDS011;28991;52.028;5.526;2024-01-11T03:31:07;3.35;;;2.80;;
40288;SDS011;28991;52.028;5.526;2024-01-11T03:33:34;3.47;;;3.17;;
40288;SDS011;28991;52.028;5.526;2024-01-11T03:36:00;4.22;;;2.78;;
40288;SDS011;28991;52.028;5.526;2024-01-11T03:38:31;4.10;;;2.90;;
40288;SDS011;28991;52.028;5.526;2024-01-11T03:40:57;3.97;;;2.90;;
40288;SDS011;28991;52.028;5.526;2024-01-11T03:43:22;4.38;;;3.20;;
40288;SDS011;28991;52.028;5.526;2024-01-11T03:45:48;5.00;;;2.75;;
40288;SDS011;28991;52.028;5.526;2024-01-11T03:48:13;3.47;;;2.80;;
40288;SDS011;28991;52.028;5.526;2024-01-11T03:50:39;4.55;;;2.75;;
40288;SDS011;28991;52.028;5.526;2024-01-11T03:53:04;3.80;;;2.72;;
40288;SDS011;28991;52.028;5.526;2024-01-11T03:55:30;4.80;;;3.00;;
40288;SDS011;28991;52.028;5.526;2024-01-11T03:57:56;4.15;;;2.90;;
40288;SDS011;28991;52.028;5.526;2024-01-11T04:00:21;3.55;;;2.60;;
40288;SDS011;28991;52.028;5.526;2024-01-11T04:02:47;4.10;;;3.22;;
40288;SDS011;28991;52.028;5.526;2024-01-11T04:05:12;6.40;;;3.58;;
40288;SDS011;28991;52.028;5.526;2024-01-11T04:07:38;3.17;;;2.85;;
40288;SDS011;28991;52.028;5.526;2024-01-11T04:10:04;3.78;;;2.60;;
40288;SDS011;28991;52.028;5.526;2024-01-11T04:12:30;5.43;;;3.25;;
40288;SDS011;28991;52.028;5.526;2024-01-11T04:14:55;4.18;;;3.10;;
40288;SDS011;28991;52.028;5.526;2024-01-11T04:17:21;4.78;;;2.78;;
40288;SDS011;28991;52.028;5.526;2024-01-11T04:19:46;4.40;;;3.03;;
40288;SDS011;28991;52.028;5.526;2024-01-11T04:22:12;5.47;;;3.83;;
40288;SDS011;28991;52.028;5.526;2024-01-11T04:24:37;4.20;;;3.10;;
40288;SDS011;28991;52.028;5.526;2024-01-11T04:27:03;4.70;;;3.38;;
40288;SDS011;28991;52.028;5.526;2024-01-11T04:29:29;4.63;;;3.28;;
40288;SDS011;28991;52.028;5.526;2024-01-11T04:31:55;4.40;;;2.95;;
40288;SDS011;28991;52.028;5.526;2024-01-11T04:34:20;3.40;;;2.95;;
40288;SDS011;28991;52.028;5.526;2024-01-11T04:36:46;4.13;;;3.03;;
40288;SDS011;28991;52.028;5.526;2024-01-11T04:39:11;3.35;;;2.60;;
40288;SDS011;28991;52.028;5.526;2024-01-11T04:41:37;3.30;;;2.60;;
40288;SDS011;28991;52.028;5.526;2024-01-11T04:44:04;3.72;;;3.00;;
40288;SDS011;28991;52.028;5.526;2024-01-11T04:46:31;4.03;;;2.80;;
40288;SDS011;28991;52.028;5.526;2024-01-11T04:48:56;4.00;;;3.03;;
40288;SDS011;28991;52.028;5.526;2024-01-11T04:51:22;3.60;;;2.85;;
40288;SDS011;28991;52.028;5.526;2024-01-11T04:53:47;4.28;;;2.78;;
40288;SDS011;28991;52.028;5.526;2024-01-11T04:56:13;3.10;;;2.63;;
40288;SDS011;28991;52.028;5.526;2024-01-11T04:58:40;4.03;;;2.88;;
40288;SDS011;28991;52.028;5.526;2024-01-11T05:01:07;3.28;;;2.60;;
40288;SDS011;28991;52.028;5.526;2024-01-11T05:03:40;4.50;;;2.88;;
40288;SDS011;28991;52.028;5.526;2024-01-11T05:06:06;4.97;;;3.10;;
40288;SDS011;28991;52.028;5.526;2024-01-11T05:08:32;4.22;;;3.05;;
40288;SDS011;28991;52.028;5.526;2024-01-11T05:10:58;2.88;;;2.58;;
40288;SDS011;28991;52.028;5.526;2024-01-11T05:13:24;4.68;;;3.00;;
40288;SDS011;28991;52.028;5.526;2024-01-11T05:15:49;4.90;;;3.22;;
40288;SDS011;28991;52.028;5.526;2024-01-11T05:18:15;4.47;;;2.97;;
40288;SDS011;28991;52.028;5.526;2024-01-11T05:20:40;4.05;;;2.72;;
40288;SDS011;28991;52.028;5.526;2024-01-11T05:23:06;3.60;;;2.70;;
40288;SDS011;28991;52.028;5.526;2024-01-11T05:25:32;3.40;;;2.72;;
40288;SDS011;28991;52.028;5.526;2024-01-11T05:28:00;4.20;;;2.60;;
40288;SDS011;28991;52.028;5.526;2024-01-11T05:30:28;3.83;;;2.88;;
40288;SDS011;28991;52.028;5.526;2024-01-11T05:32:54;3.13;;;2.83;;
40288;SDS011;28991;52.028;5.526;2024-01-11T05:35:20;3.95;;;2.95;;
40288;SDS011;28991;52.028;5.526;2024-01-11T05:37:47;3.53;;;2.70;;
40288;SDS011;28991;52.028;5.526;2024-01-11T05:40:12;3.20;;;2.70;;
40288;SDS011;28991;52.028;5.526;2024-01-11T05:42:38;2.88;;;2.50;;
40288;SDS011;28991;52.028;5.526;2024-01-11T05:45:04;4.63;;;2.60;;
40288;SDS011;28991;52.028;5.526;2024-01-11T05:47:30;4.22;;;3.10;;
40288;SDS011;28991;52.028;5.526;2024-01-11T05:49:56;3.70;;;2.83;;
40288;SDS011;28991;52.028;5.526;2024-01-11T05:52:21;3.92;;;2.97;;
40288;SDS011;28991;52.028;5.526;2024-01-11T05:54:47;3.90;;;2.25;;
40288;SDS011;28991;52.028;5.526;2024-01-11T05:57:13;3.00;;;2.45;;
40288;SDS011;28991;52.028;5.526;2024-01-11T05:59:43;4.82;;;2.88;;
40288;SDS011;28991;52.028;5.526;2024-01-11T06:02:12;3.38;;;2.53;;
40288;SDS011;28991;52.028;5.526;2024-01-11T06:04:38;4.47;;;2.90;;
40288;SDS011;28991;52.028;5.526;2024-01-11T06:07:04;3.42;;;2.88;;
40288;SDS011;28991;52.028;5.526;2024-01-11T06:09:29;3.10;;;2.53;;
40288;SDS011;28991;52.028;5.526;2024-01-11T06:11:55;5.75;;;4.30;;
40288;SDS011;28991;52.028;5.526;2024-01-11T06:14:20;5.55;;;4.63;;
40288;SDS011;28991;52.028;5.526;2024-01-11T06:16:46;7.90;;;5.53;;
40288;SDS011;28991;52.028;5.526;2024-01-11T06:19:11;5.57;;;4.68;;
40288;SDS011;28991;52.028;5.526;2024-01-11T06:21:37;6.32;;;5.38;;
40288;SDS011;28991;52.028;5.526;2024-01-11T06:24:03;6.57;;;5.32;;
40288;SDS011;28991;52.028;5.526;2024-01-11T06:26:28;6.68;;;5.72;;
40288;SDS011;28991;52.028;5.526;2024-01-11T06:28:54;7.00;;;5.53;;
40288;SDS011;28991;52.028;5.526;2024-01-11T06:31:20;6.40;;;5.38;;
40288;SDS011;28991;52.028;5.526;2024-01-11T06:33:45;5.47;;;4.65;;
40288;SDS011;28991;52.028;5.526;2024-01-11T06:36:11;6.13;;;4.88;;
40288;SDS011;28991;52.028;5.526;2024-01-11T06:38:36;7.13;;;5.38;;
40288;SDS011;28991;52.028;5.526;2024-01-11T06:41:02;5.32;;;4.50;;
40288;SDS011;28991;52.028;5.526;2024-01-11T06:43:28;5.53;;;4.82;;
40288;SDS011;28991;52.028;5.526;2024-01-11T06:45:53;6.03;;;4.53;;
40288;SDS011;28991;52.028;5.526;2024-01-11T06:48:19;5.25;;;4.53;;
40288;SDS011;28991;52.028;5.526;2024-01-11T06:50:44;5.22;;;4.45;;
40288;SDS011;28991;52.028;5.526;2024-01-11T06:53:10;6.53;;;4.75;;
40288;SDS011;28991;52.028;5.526;2024-01-11T06:55:36;7.43;;;4.80;;
40288;SDS011;28991;52.028;5.526;2024-01-11T06:58:01;6.97;;;4.43;;
40288;SDS011;28991;52.028;5.526;2024-01-11T07:00:27;5.93;;;4.60;;
40288;SDS011;28991;52.028;5.526;2024-01-11T07:02:53;6.90;;;5.20;;
40288;SDS011;28991;52.028;5.526;2024-01-11T07:05:19;8.23;;;5.18;;
40288;SDS011;28991;52.028;5.526;2024-01-11T07:07:45;7.50;;;5.43;;
40288;SDS011;28991;52.028;5.526;2024-01-11T07:10:11;9.02;;;4.97;;
40288;SDS011;28991;52.028;5.526;2024-01-11T07:12:37;7.05;;;5.40;;
40288;SDS011;28991;52.028;5.526;2024-01-11T07:15:04;6.65;;;4.95;;
40288;SDS011;28991;52.028;5.526;2024-01-11T07:17:30;9.73;;;5.55;;
40288;SDS011;28991;52.028;5.526;2024-01-11T07:19:55;10.27;;;5.22;;
40288;SDS011;28991;52.028;5.526;2024-01-11T07:22:21;10.30;;;5.75;;
40288;SDS011;28991;52.028;5.526;2024-01-11T07:24:46;7.47;;;5.70;;
40288;SDS011;28991;52.028;5.526;2024-01-11T07:27:12;8.68;;;5.97;;
40288;SDS011;28991;52.028;5.526;2024-01-11T07:29:38;6.82;;;5.95;;
40288;SDS011;28991;52.028;5.526;2024-01-11T07:32:03;8.05;;;5.75;;
40288;SDS011;28991;52.028;5.526;2024-01-11T07:34:29;6.72;;;5.50;;
40288;SDS011;28991;52.028;5.526;2024-01-11T07:36:55;12.45;;;5.57;;
40288;SDS011;28991;52.028;5.526;2024-01-11T07:39:21;6.65;;;5.72;;
40288;SDS011;28991;52.028;5.526;2024-01-11T07:41:47;6.07;;;5.07;;
40288;SDS011;28991;52.028;5.526;2024-01-11T07:44:13;7.03;;;4.82;;
40288;SDS011;28991;52.028;5.526;2024-01-11T07:46:39;6.30;;;5.10;;
40288;SDS011;28991;52.028;5.526;2024-01-11T07:49:05;6.13;;;5.07;;
40288;SDS011;28991;52.028;5.526;2024-01-11T07:51:31;6.00;;;5.40;;
40288;SDS011;28991;52.028;5.526;2024-01-11T07:53:57;7.40;;;5.43;;
40288;SDS011;28991;52.028;5.526;2024-01-11T07:56:23;6.15;;;5.05;;
40288;SDS011;28991;52.028;5.526;2024-01-11T07:58:49;6.47;;;5.25;;
40288;SDS011;28991;52.028;5.526;2024-01-11T08:01:15;9.23;;;5.28;;
40288;SDS011;28991;52.028;5.526;2024-01-11T08:03:41;10.73;;;5.70;;
40288;SDS011;28991;52.028;5.526;2024-01-11T08:06:06;6.63;;;4.82;;
40288;SDS011;28991;52.028;5.526;2024-01-11T08:08:32;22.02;;;5.72;;
40288;SDS011;28991;52.028;5.526;2024-01-11T08:10:59;10.00;;;6.53;;
40288;SDS011;28991;52.028;5.526;2024-01-11T08:13:24;12.90;;;5.95;;
40288;SDS011;28991;52.028;5.526;2024-01-11T08:15:50;11.60;;;5.63;;
40288;SDS011;28991;52.028;5.526;2024-01-11T08:18:18;8.35;;;5.35;;
40288;SDS011;28991;52.028;5.526;2024-01-11T08:20:43;12.30;;;6.15;;
40288;SDS011;28991;52.028;5.526;2024-01-11T08:23:09;9.40;;;5.40;;
40288;SDS011;28991;52.028;5.526;2024-01-11T08:25:35;6.85;;;4.60;;
40288;SDS011;28991;52.028;5.526;2024-01-11T08:28:00;12.80;;;5.40;;
40288;SDS011;28991;52.028;5.526;2024-01-11T08:30:27;7.68;;;4.85;;
40288;SDS011;28991;52.028;5.526;2024-01-11T08:32:53;11.88;;;5.78;;
40288;SDS011;28991;52.028;5.526;2024-01-11T08:35:20;6.22;;;4.72;;
40288;SDS011;28991;52.028;5.526;2024-01-11T08:37:46;7.15;;;5.10;;
40288;SDS011;28991;52.028;5.526;2024-01-11T08:40:11;8.15;;;4.88;;
40288;SDS011;28991;52.028;5.526;2024-01-11T08:42:37;10.25;;;4.80;;
40288;SDS011;28991;52.028;5.526;2024-01-11T08:45:04;6.70;;;5.13;;
40288;SDS011;28991;52.028;5.526;2024-01-11T08:47:32;9.63;;;5.40;;
40288;SDS011;28991;52.028;5.526;2024-01-11T08:49:58;8.85;;;4.93;;
40288;SDS011;28991;52.028;5.526;2024-01-11T08:52:24;6.68;;;4.97;;
40288;SDS011;28991;52.028;5.526;2024-01-11T08:54:49;14.25;;;6.57;;
40288;SDS011;28991;52.028;5.526;2024-01-11T08:57:15;9.27;;;5.47;;
40288;SDS011;28991;52.028;5.526;2024-01-11T08:59:42;6.00;;;5.05;;
40288;SDS011;28991;52.028;5.526;2024-01-11T09:02:07;5.40;;;4.55;;
40288;SDS011;28991;52.028;5.526;2024-01-11T09:04:33;10.73;;;4.25;;
40288;SDS011;28991;52.028;5.526;2024-01-11T09:06:59;13.65;;;5.13;;
40288;SDS011;28991;52.028;5.526;2024-01-11T09:09:24;11.85;;;5.40;;
40288;SDS011;28991;52.028;5.526;2024-01-11T09:11:50;8.60;;;5.80;;
40288;SDS011;28991;52.028;5.526;2024-01-11T09:14:16;6.85;;;4.80;;
40288;SDS011;28991;52.028;5.526;2024-01-11T09:16:41;7.15;;;4.90;;
40288;SDS011;28991;52.028;5.526;2024-01-11T09:19:07;10.30;;;5.80;;
40288;SDS011;28991;52.028;5.526;2024-01-11T09:21:33;9.32;;;5.32;;
40288;SDS011;28991;52.028;5.526;2024-01-11T09:23:58;6.65;;;4.93;;
40288;SDS011;28991;52.028;5.526;2024-01-11T09:26:24;10.48;;;5.32;;
40288;SDS011;28991;52.028;5.526;2024-01-11T09:28:50;6.70;;;5.63;;
40288;SDS011;28991;52.028;5.526;2024-01-11T09:31:15;6.78;;;5.47;;
40288;SDS011;28991;52.028;5.526;2024-01-11T09:33:41;10.32;;;5.57;;
40288;SDS011;28991;52.028;5.526;2024-01-11T09:36:10;7.88;;;5.43;;
40288;SDS011;28991;52.028;5.526;2024-01-11T09:38:36;6.93;;;5.10;;
40288;SDS011;28991;52.028;5.526;2024-01-11T09:43:36;9.18;;;5.93;;
40288;SDS011;28991;52.028;5.526;2024-01-11T09:46:03;13.57;;;6.35;;
40288;SDS011;28991;52.028;5.526;2024-01-11T09:48:31;7.32;;;5.88;;
40288;SDS011;28991;52.028;5.526;2024-01-11T09:50:58;8.10;;;5.65;;
40288;SDS011;28991;52.028;5.526;2024-01-11T09:53:25;8.25;;;6.03;;
40288;SDS011;28991;52.028;5.526;2024-01-11T09:55:53;10.25;;;5.38;;
40288;SDS011;28991;52.028;5.526;2024-01-11T09:58:20;11.38;;;5.28;;
40288;SDS011;28991;52.028;5.526;2024-01-11T10:00:47;7.65;;;4.88;;
40288;SDS011;28991;52.028;5.526;2024-01-11T10:03:15;11.25;;;5.70;;
40288;SDS011;28991;52.028;5.526;2024-01-11T10:05:42;8.00;;;5.35;;
40288;SDS011;28991;52.028;5.526;2024-01-11T10:08:09;7.88;;;4.50;;
40288;SDS011;28991;52.028;5.526;2024-01-11T10:10:35;7.78;;;4.60;;
40288;SDS011;28991;52.028;5.526;2024-01-11T10:13:01;5.68;;;4.57;;
40288;SDS011;28991;52.028;5.526;2024-01-11T10:15:28;8.15;;;4.65;;
40288;SDS011;28991;52.028;5.526;2024-01-11T10:17:53;11.95;;;4.30;;
40288;SDS011;28991;52.028;5.526;2024-01-11T10:20:19;12.10;;;4.82;;
40288;SDS011;28991;52.028;5.526;2024-01-11T10:22:48;6.68;;;3.60;;
40288;SDS011;28991;52.028;5.526;2024-01-11T10:25:15;5.35;;;3.38;;
40288;SDS011;28991;52.028;5.526;2024-01-11T10:27:43;4.55;;;3.88;;
40288;SDS011;28991;52.028;5.526;2024-01-11T10:30:10;5.22;;;3.95;;
40288;SDS011;28991;52.028;5.526;2024-01-11T10:32:43;4.18;;;3.65;;
40288;SDS011;28991;52.028;5.526;2024-01-11T10:35:09;6.10;;;3.40;;
40288;SDS011;28991;52.028;5.526;2024-01-11T10:37:35;5.13;;;2.95;;
40288;SDS011;28991;52.028;5.526;2024-01-11T10:40:04;10.40;;;3.05;;
40288;SDS011;28991;52.028;5.526;2024-01-11T10:42:44;5.80;;;3.15;;
40288;SDS011;28991;52.028;5.526;2024-01-11T10:45:14;3.70;;;2.95;;
40288;SDS011;28991;52.028;5.526;2024-01-11T10:47:56;10.05;;;3.50;;
40288;SDS011;28991;52.028;5.526;2024-01-11T10:50:30;6.88;;;2.95;;
40288;SDS011;28991;52.028;5.526;2024-01-11T10:53:04;8.00;;;2.75;;
40288;SDS011;28991;52.028;5.526;2024-01-11T10:55:43;3.85;;;2.60;;
40288;SDS011;28991;52.028;5.526;2024-01-11T10:58:09;4.30;;;2.30;;
40288;SDS011;28991;52.028;5.526;2024-01-11T11:00:36;4.55;;;2.60;;
40288;SDS011;28991;52.028;5.526;2024-01-11T11:03:02;13.10;;;3.28;;
40288;SDS011;28991;52.028;5.526;2024-01-11T11:05:31;4.38;;;2.90;;
40288;SDS011;28991;52.028;5.526;2024-01-11T11:08:00;4.63;;;2.55;;
40288;SDS011;28991;52.028;5.526;2024-01-11T11:10:27;4.90;;;2.58;;
40288;SDS011;28991;52.028;5.526;2024-01-11T11:12:54;3.53;;;2.75;;
40288;SDS011;28991;52.028;5.526;2024-01-11T11:15:23;3.78;;;2.63;;
40288;SDS011;28991;52.028;5.526;2024-01-11T11:17:49;4.45;;;2.67;;
40288;SDS011;28991;52.028;5.526;2024-01-11T11:20:15;6.47;;;3.00;;
40288;SDS011;28991;52.028;5.526;2024-01-11T11:22:41;5.57;;;3.08;;
40288;SDS011;28991;52.028;5.526;2024-01-11T11:25:11;9.48;;;3.78;;
40288;SDS011;28991;52.028;5.526;2024-01-11T11:27:49;7.90;;;3.97;;
40288;SDS011;28991;52.028;5.526;2024-01-11T11:30:14;6.20;;;4.20;;
40288;SDS011;28991;52.028;5.526;2024-01-11T11:32:45;9.60;;;3.90;;
40288;SDS011;28991;52.028;5.526;2024-01-11T11:35:11;10.88;;;4.03;;
40288;SDS011;28991;52.028;5.526;2024-01-11T11:37:37;7.60;;;3.30;;
40288;SDS011;28991;52.028;5.526;2024-01-11T11:40:03;5.68;;;3.75;;
40288;SDS011;28991;52.028;5.526;2024-01-11T11:42:34;6.22;;;3.13;;
40288;SDS011;28991;52.028;5.526;2024-01-11T11:45:00;5.72;;;3.58;;
40288;SDS011;28991;52.028;5.526;2024-01-11T11:47:32;4.88;;;2.97;;
40288;SDS011;28991;52.028;5.526;2024-01-11T11:52:37;4.28;;;2.80;;
40288;SDS011;28991;52.028;5.526;2024-01-11T11:55:03;8.48;;;3.35;;
40288;SDS011;28991;52.028;5.526;2024-01-11T11:57:31;6.60;;;3.08;;
40288;SDS011;28991;52.028;5.526;2024-01-11T11:59:58;6.78;;;3.10;;
40288;SDS011;28991;52.028;5.526;2024-01-11T12:02:24;9.25;;;2.92;;
40288;SDS011;28991;52.028;5.526;2024-01-11T12:04:51;7.57;;;3.33;;
40288;SDS011;28991;52.028;5.526;2024-01-11T12:07:17;4.60;;;3.05;;
40288;SDS011;28991;52.028;5.526;2024-01-11T12:09:42;7.90;;;3.28;;
40288;SDS011;28991;52.028;5.526;2024-01-11T12:12:08;5.10;;;2.55;;
40288;SDS011;28991;52.028;5.526;2024-01-11T12:14:34;9.82;;;3.38;;
40288;SDS011;28991;52.028;5.526;2024-01-11T12:17:00;6.05;;;3.33;;
40288;SDS011;28991;52.028;5.526;2024-01-11T12:19:26;12.15;;;4.10;;
40288;SDS011;28991;52.028;5.526;2024-01-11T12:21:53;6.95;;;3.15;;
40288;SDS011;28991;52.028;5.526;2024-01-11T12:24:19;5.57;;;3.50;;
40288;SDS011;28991;52.028;5.526;2024-01-11T12:26:48;5.53;;;3.65;;
40288;SDS011;28991;52.028;5.526;2024-01-11T12:29:15;7.75;;;3.72;;
40288;SDS011;28991;52.028;5.526;2024-01-11T12:31:43;5.60;;;3.60;;
40288;SDS011;28991;52.028;5.526;2024-01-11T12:34:09;5.50;;;3.30;;
40288;SDS011;28991;52.028;5.526;2024-01-11T12:36:37;6.72;;;4.13;;
40288;SDS011;28991;52.028;5.526;2024-01-11T12:39:03;15.68;;;5.22;;
40288;SDS011;28991;52.028;5.526;2024-01-11T12:41:31;10.02;;;4.75;;
40288;SDS011;28991;52.028;5.526;2024-01-11T12:43:57;10.05;;;4.72;;
40288;SDS011;28991;52.028;5.526;2024-01-11T12:46:23;7.70;;;3.90;;
40288;SDS011;28991;52.028;5.526;2024-01-11T12:48:49;16.05;;;4.68;;
40288;SDS011;28991;52.028;5.526;2024-01-11T12:51:16;9.93;;;4.38;;
40288;SDS011;28991;52.028;5.526;2024-01-11T12:53:44;7.57;;;4.13;;
40288;SDS011;28991;52.028;5.526;2024-01-11T12:56:10;11.57;;;4.00;;
40288;SDS011;28991;52.028;5.526;2024-01-11T12:58:39;7.43;;;4.10;;
40288;SDS011;28991;52.028;5.526;2024-01-11T13:01:05;5.18;;;3.53;;
40288;SDS011;28991;52.028;5.526;2024-01-11T13:03:35;12.40;;;4.47;;
40288;SDS011;28991;52.028;5.526;2024-01-11T13:06:02;16.73;;;4.13;;
40288;SDS011;28991;52.028;5.526;2024-01-11T13:08:30;4.22;;;2.80;;
40288;SDS011;28991;52.028;5.526;2024-01-11T13:11:01;4.30;;;2.92;;
40288;SDS011;28991;52.028;5.526;2024-01-11T13:13:31;5.15;;;2.20;;
40288;SDS011;28991;52.028;5.526;2024-01-11T13:16:00;5.82;;;3.38;;
40288;SDS011;28991;52.028;5.526;2024-01-11T13:18:30;5.28;;;2.70;;
40288;SDS011;28991;52.028;5.526;2024-01-11T13:20:56;4.80;;;2.78;;
40288;SDS011;28991;52.028;5.526;2024-01-11T13:23:22;7.82;;;3.42;;
40288;SDS011;28991;52.028;5.526;2024-01-11T13:25:49;6.05;;;3.10;;
40288;SDS011;28991;52.028;5.526;2024-01-11T13:28:15;6.72;;;3.60;;
40288;SDS011;28991;52.028;5.526;2024-01-11T13:30:42;4.85;;;3.35;;
40288;SDS011;28991;52.028;5.526;2024-01-11T13:33:08;6.10;;;3.45;;
40288;SDS011;28991;52.028;5.526;2024-01-11T13:35:36;9.95;;;4.32;;
40288;SDS011;28991;52.028;5.526;2024-01-11T13:38:02;5.25;;;3.47;;
40288;SDS011;28991;52.028;5.526;2024-01-11T13:40:29;9.10;;;3.35;;
40288;SDS011;28991;52.028;5.526;2024-01-11T13:42:55;9.35;;;3.30;;
40288;SDS011;28991;52.028;5.526;2024-01-11T13:45:21;5.40;;;3.30;;
40288;SDS011;28991;52.028;5.526;2024-01-11T13:47:47;5.18;;;2.92;;
40288;SDS011;28991;52.028;5.526;2024-01-11T13:50:13;3.83;;;2.88;;
40288;SDS011;28991;52.028;5.526;2024-01-11T13:52:39;5.07;;;2.90;;
40288;SDS011;28991;52.028;5.526;2024-01-11T13:55:06;8.75;;;3.08;;
40288;SDS011;28991;52.028;5.526;2024-01-11T13:57:32;4.97;;;3.20;;
40288;SDS011;28991;52.028;5.526;2024-01-11T13:59:59;5.80;;;2.95;;
40288;SDS011;28991;52.028;5.526;2024-01-11T14:02:24;4.05;;;2.78;;
40288;SDS011;28991;52.028;5.526;2024-01-11T14:04:50;4.80;;;3.10;;
40288;SDS011;28991;52.028;5.526;2024-01-11T14:07:15;4.93;;;3.10;;
40288;SDS011;28991;52.028;5.526;2024-01-11T14:09:41;4.55;;;3.13;;
40288;SDS011;28991;52.028;5.526;2024-01-11T14:12:07;10.48;;;3.22;;
40288;SDS011;28991;52.028;5.526;2024-01-11T14:14:35;4.97;;;2.78;;
40288;SDS011;28991;52.028;5.526;2024-01-11T14:17:00;7.68;;;3.97;;
40288;SDS011;28991;52.028;5.526;2024-01-11T14:19:26;4.53;;;3.28;;
40288;SDS011;28991;52.028;5.526;2024-01-11T14:21:53;5.55;;;2.67;;
40288;SDS011;28991;52.028;5.526;2024-01-11T14:24:18;6.90;;;2.55;;
40288;SDS011;28991;52.028;5.526;2024-01-11T14:26:44;6.05;;;2.42;;
40288;SDS011;28991;52.028;5.526;2024-01-11T14:29:10;8.40;;;2.90;;
40288;SDS011;28991;52.028;5.526;2024-01-11T14:31:36;5.20;;;2.20;;
40288;SDS011;28991;52.028;5.526;2024-01-11T14:34:02;5.38;;;2.50;;
40288;SDS011;28991;52.028;5.526;2024-01-11T14:36:28;6.85;;;2.50;;
40288;SDS011;28991;52.028;5.526;2024-01-11T14:38:54;8.55;;;3.00;;
40288;SDS011;28991;52.028;5.526;2024-01-11T14:41:20;3.05;;;1.70;;
40288;SDS011;28991;52.028;5.526;2024-01-11T14:43:46;2.83;;;2.05;;
40288;SDS011;28991;52.028;5.526;2024-01-11T14:46:11;4.40;;;1.90;;